sensor_id;sensor_type;location;lat;lon;timestamp;P1;durP1;ratioP1;P2;durP2;ratioP2
11016;SDS011;54687;50.800;6.772;2023-12-14T00:00:22;20.75;;;15.60;;
11016;SDS011;54687;50.800;6.772;2023-12-14T00:02:49;22.33;;;18.20;;
11016;SDS011;54687;50.800;6.772;2023-12-14T00:05:15;27.80;;;18.67;;
11016;SDS011;54687;50.800;6.772;2023-12-14T00:07:43;27.23;;;18.38;;
11016;SDS011;54687;50.800;6.772;2023-12-14T00:10:10;22.05;;;19.35;;
11016;SDS011;54687;50.800;6.772;2023-12-14T00:12:37;27.80;;;18.33;;
11016;SDS011;54687;50.800;6.772;2023-12-14T00:15:04;24.38;;;20.35;;
11016;SDS011;54687;50.800;6.772;2023-12-14T00:17:32;24.90;;;22.02;;
11016;SDS011;54687;50.800;6.772;2023-12-14T00:19:58;27.98;;;22.00;;
11016;SDS011;54687;50.800;6.772;2023-12-14T00:22:25;30.92;;;23.52;;
11016;SDS011;54687;50.800;6.772;2023-12-14T00:24:52;29.65;;;23.45;;
11016;SDS011;54687;50.800;6.772;2023-12-14T00:27:19;32.65;;;25.15;;
11016;SDS011;54687;50.800;6.772;2023-12-14T00:29:46;31.63;;;27.73;;
11016;SDS011;54687;50.800;6.772;2023-12-14T00:32:12;29.80;;;26.65;;
11016;SDS011;54687;50.800;6.772;2023-12-14T00:34:39;33.22;;;27.35;;
11016;SDS011;54687;50.800;6.772;2023-12-14T00:37:06;35.80;;;28.98;;
11016;SDS011;54687;50.800;6.772;2023-12-14T00:39:32;36.53;;;28.73;;
11016;SDS011;54687;50.800;6.772;2023-12-14T00:42:00;33.05;;;27.95;;
11016;SDS011;54687;50.800;6.772;2023-12-14T00:44:27;33.53;;;27.88;;
11016;SDS011;54687;50.800;6.772;2023-12-14T00:46:53;34.33;;;27.85;;
11016;SDS011;54687;50.800;6.772;2023-12-14T00:49:20;39.28;;;30.90;;
11016;SDS011;54687;50.800;6.772;2023-12-14T00:51:47;39.70;;;30.92;;
11016;SDS011;54687;50.800;6.772;2023-12-14T00:54:13;36.92;;;31.02;;
11016;SDS011;54687;50.800;6.772;2023-12-14T00:56:40;45.42;;;33.85;;
11016;SDS011;54687;50.800;6.772;2023-12-14T00:59:08;42.33;;;33.20;;
11016;SDS011;54687;50.800;6.772;2023-12-14T01:01:34;45.28;;;34.55;;
11016;SDS011;54687;50.800;6.772;2023-12-14T01:04:01;48.05;;;34.88;;
11016;SDS011;54687;50.800;6.772;2023-12-14T01:06:27;44.35;;;34.20;;
11016;SDS011;54687;50.800;6.772;2023-12-14T01:08:54;43.80;;;32.50;;
11016;SDS011;54687;50.800;6.772;2023-12-14T01:11:20;46.80;;;33.53;;
11016;SDS011;54687;50.800;6.772;2023-12-14T01:13:47;43.72;;;33.45;;
11016;SDS011;54687;50.800;6.772;2023-12-14T01:16:15;45.67;;;32.47;;
11016;SDS011;54687;50.800;6.772;2023-12-14T01:18:41;45.92;;;32.83;;
11016;SDS011;54687;50.800;6.772;2023-12-14T01:21:08;43.92;;;31.85;;
11016;SDS011;54687;50.800;6.772;2023-12-14T01:23:35;41.75;;;30.83;;
11016;SDS011;54687;50.800;6.772;2023-12-14T01:26:03;41.67;;;30.73;;
11016;SDS011;54687;50.800;6.772;2023-12-14T01:28:31;42.80;;;31.80;;
11016;SDS011;54687;50.800;6.772;2023-12-14T01:30:58;48.55;;;33.95;;
11016;SDS011;54687;50.800;6.772;2023-12-14T01:33:27;41.15;;;29.70;;
11016;SDS011;54687;50.800;6.772;2023-12-14T01:35:54;45.38;;;31.95;;
11016;SDS011;54687;50.800;6.772;2023-12-14T01:38:21;40.42;;;30.77;;
11016;SDS011;54687;50.800;6.772;2023-12-14T01:40:48;39.90;;;29.20;;
11016;SDS011;54687;50.800;6.772;2023-12-14T01:43:15;39.55;;;29.23;;
11016;SDS011;54687;50.800;6.772;2023-12-14T01:45:42;42.03;;;30.30;;
11016;SDS011;54687;50.800;6.772;2023-12-14T01:48:09;38.20;;;29.13;;
11016;SDS011;54687;50.800;6.772;2023-12-14T01:50:38;37.47;;;28.65;;
11016;SDS011;54687;50.800;6.772;2023-12-14T01:53:24;38.75;;;28.50;;
11016;SDS011;54687;50.800;6.772;2023-12-14T01:55:52;38.45;;;28.80;;
11016;SDS011;54687;50.800;6.772;2023-12-14T01:58:19;37.28;;;28.42;;
11016;SDS011;54687;50.800;6.772;2023-12-14T02:00:49;42.17;;;29.27;;
11016;SDS011;54687;50.800;6.772;2023-12-14T02:03:21;35.80;;;27.52;;
11016;SDS011;54687;50.800;6.772;2023-12-14T02:05:49;38.70;;;28.67;;
11016;SDS011;54687;50.800;6.772;2023-12-14T02:08:16;34.20;;;26.92;;
11016;SDS011;54687;50.800;6.772;2023-12-14T02:10:43;35.15;;;28.15;;
11016;SDS011;54687;50.800;6.772;2023-12-14T02:13:09;35.85;;;28.20;;
11016;SDS011;54687;50.800;6.772;2023-12-14T02:15:35;33.58;;;25.73;;
11016;SDS011;54687;50.800;6.772;2023-12-14T02:18:02;36.92;;;27.83;;
11016;SDS011;54687;50.800;6.772;2023-12-14T02:20:28;40.85;;;30.23;;
11016;SDS011;54687;50.800;6.772;2023-12-14T02:22:56;46.40;;;30.80;;
11016;SDS011;54687;50.800;6.772;2023-12-14T02:25:23;38.25;;;28.83;;
11016;SDS011;54687;50.800;6.772;2023-12-14T02:27:50;40.65;;;29.77;;
11016;SDS011;54687;50.800;6.772;2023-12-14T02:30:17;37.65;;;28.85;;
11016;SDS011;54687;50.800;6.772;2023-12-14T02:32:44;39.65;;;29.45;;
11016;SDS011;54687;50.800;6.772;2023-12-14T02:35:11;36.00;;;28.63;;
11016;SDS011;54687;50.800;6.772;2023-12-14T02:37:38;43.38;;;31.75;;
11016;SDS011;54687;50.800;6.772;2023-12-14T02:40:07;39.08;;;29.45;;
11016;SDS011;54687;50.800;6.772;2023-12-14T02:42:34;40.03;;;30.77;;
11016;SDS011;54687;50.800;6.772;2023-12-14T02:45:01;42.53;;;32.33;;
11016;SDS011;54687;50.800;6.772;2023-12-14T02:47:28;39.60;;;30.30;;
11016;SDS011;54687;50.800;6.772;2023-12-14T02:49:55;43.25;;;30.48;;
11016;SDS011;54687;50.800;6.772;2023-12-14T02:52:22;40.22;;;31.08;;
11016;SDS011;54687;50.800;6.772;2023-12-14T02:54:48;46.53;;;33.33;;
11016;SDS011;54687;50.800;6.772;2023-12-14T02:57:16;47.20;;;33.58;;
11016;SDS011;54687;50.800;6.772;2023-12-14T02:59:43;49.95;;;35.78;;
11016;SDS011;54687;50.800;6.772;2023-12-14T03:02:09;48.22;;;34.70;;
11016;SDS011;54687;50.800;6.772;2023-12-14T03:04:37;44.55;;;32.55;;
11016;SDS011;54687;50.800;6.772;2023-12-14T03:07:04;44.40;;;32.13;;
11016;SDS011;54687;50.800;6.772;2023-12-14T03:09:31;45.30;;;30.70;;
11016;SDS011;54687;50.800;6.772;2023-12-14T03:11:58;45.83;;;34.50;;
11016;SDS011;54687;50.800;6.772;2023-12-14T03:14:26;50.85;;;34.83;;
11016;SDS011;54687;50.800;6.772;2023-12-14T03:16:58;48.60;;;35.22;;
11016;SDS011;54687;50.800;6.772;2023-12-14T03:19:24;42.40;;;33.03;;
11016;SDS011;54687;50.800;6.772;2023-12-14T03:21:51;42.28;;;32.72;;
11016;SDS011;54687;50.800;6.772;2023-12-14T03:24:17;47.20;;;33.15;;
11016;SDS011;54687;50.800;6.772;2023-12-14T03:26:44;39.75;;;29.90;;
11016;SDS011;54687;50.800;6.772;2023-12-14T03:29:11;37.90;;;30.00;;
11016;SDS011;54687;50.800;6.772;2023-12-14T03:31:39;40.83;;;29.55;;
11016;SDS011;54687;50.800;6.772;2023-12-14T03:34:06;39.00;;;28.90;;
11016;SDS011;54687;50.800;6.772;2023-12-14T03:36:32;42.03;;;29.80;;
11016;SDS011;54687;50.800;6.772;2023-12-14T03:38:59;45.47;;;31.02;;
11016;SDS011;54687;50.800;6.772;2023-12-14T03:41:25;45.78;;;30.73;;
11016;SDS011;54687;50.800;6.772;2023-12-14T03:43:52;43.25;;;29.80;;
11016;SDS011;54687;50.800;6.772;2023-12-14T03:46:19;46.70;;;31.00;;
11016;SDS011;54687;50.800;6.772;2023-12-14T03:48:47;44.10;;;29.85;;
11016;SDS011;54687;50.800;6.772;2023-12-14T03:51:13;47.00;;;31.02;;
11016;SDS011;54687;50.800;6.772;2023-12-14T03:53:44;52.03;;;32.90;;
11016;SDS011;54687;50.800;6.772;2023-12-14T03:56:10;49.60;;;33.65;;
11016;SDS011;54687;50.800;6.772;2023-12-14T03:58:37;72.63;;;37.60;;
11016;SDS011;54687;50.800;6.772;2023-12-14T04:01:04;61.75;;;37.03;;
11016;SDS011;54687;50.800;6.772;2023-12-14T04:03:31;62.00;;;36.60;;
11016;SDS011;54687;50.800;6.772;2023-12-14T04:05:59;72.78;;;39.30;;
11016;SDS011;54687;50.800;6.772;2023-12-14T04:08:26;63.88;;;36.67;;
11016;SDS011;54687;50.800;6.772;2023-12-14T04:10:52;55.42;;;34.95;;
11016;SDS011;54687;50.800;6.772;2023-12-14T04:13:19;61.22;;;35.80;;
11016;SDS011;54687;50.800;6.772;2023-12-14T04:15:46;55.65;;;35.72;;
11016;SDS011;54687;50.800;6.772;2023-12-14T04:18:12;63.42;;;35.35;;
11016;SDS011;54687;50.800;6.772;2023-12-14T04:20:39;62.90;;;36.50;;
11016;SDS011;54687;50.800;6.772;2023-12-14T04:23:07;54.63;;;33.60;;
11016;SDS011;54687;50.800;6.772;2023-12-14T04:25:33;42.15;;;30.45;;
11016;SDS011;54687;50.800;6.772;2023-12-14T04:28:00;42.00;;;27.77;;
11016;SDS011;54687;50.800;6.772;2023-12-14T04:30:26;52.50;;;29.08;;
11016;SDS011;54687;50.800;6.772;2023-12-14T04:32:53;52.03;;;27.52;;
11016;SDS011;54687;50.800;6.772;2023-12-14T04:35:20;46.40;;;28.80;;
11016;SDS011;54687;50.800;6.772;2023-12-14T04:37:47;41.03;;;27.08;;
11016;SDS011;54687;50.800;6.772;2023-12-14T04:40:15;44.67;;;27.30;;
11016;SDS011;54687;50.800;6.772;2023-12-14T04:42:41;32.50;;;26.02;;
11016;SDS011;54687;50.800;6.772;2023-12-14T04:45:08;32.47;;;24.58;;
11016;SDS011;54687;50.800;6.772;2023-12-14T04:47:35;38.03;;;25.40;;
11016;SDS011;54687;50.800;6.772;2023-12-14T04:50:02;39.20;;;25.40;;
11016;SDS011;54687;50.800;6.772;2023-12-14T04:52:29;40.53;;;28.60;;
11016;SDS011;54687;50.800;6.772;2023-12-14T04:54:55;40.28;;;27.83;;
11016;SDS011;54687;50.800;6.772;2023-12-14T04:57:23;41.53;;;27.88;;
11016;SDS011;54687;50.800;6.772;2023-12-14T04:59:50;43.63;;;28.08;;
11016;SDS011;54687;50.800;6.772;2023-12-14T05:02:16;41.80;;;28.70;;
11016;SDS011;54687;50.800;6.772;2023-12-14T05:04:43;46.60;;;29.35;;
11016;SDS011;54687;50.800;6.772;2023-12-14T05:07:09;43.78;;;29.17;;
11016;SDS011;54687;50.800;6.772;2023-12-14T05:09:36;41.83;;;28.33;;
11016;SDS011;54687;50.800;6.772;2023-12-14T05:12:03;38.15;;;27.80;;
11016;SDS011;54687;50.800;6.772;2023-12-14T05:14:31;37.70;;;25.88;;
11016;SDS011;54687;50.800;6.772;2023-12-14T05:16:58;44.60;;;28.85;;
11016;SDS011;54687;50.800;6.772;2023-12-14T05:19:24;53.83;;;30.05;;
11016;SDS011;54687;50.800;6.772;2023-12-14T05:21:51;46.38;;;30.50;;
11016;SDS011;54687;50.800;6.772;2023-12-14T05:24:19;42.22;;;29.08;;
11016;SDS011;54687;50.800;6.772;2023-12-14T05:26:46;36.53;;;28.33;;
11016;SDS011;54687;50.800;6.772;2023-12-14T05:29:12;38.05;;;27.92;;
11016;SDS011;54687;50.800;6.772;2023-12-14T05:31:40;39.97;;;27.80;;
11016;SDS011;54687;50.800;6.772;2023-12-14T05:34:06;40.65;;;27.98;;
11016;SDS011;54687;50.800;6.772;2023-12-14T05:36:33;36.63;;;28.05;;
11016;SDS011;54687;50.800;6.772;2023-12-14T05:39:00;40.33;;;29.42;;
11016;SDS011;54687;50.800;6.772;2023-12-14T05:41:28;36.72;;;28.48;;
11016;SDS011;54687;50.800;6.772;2023-12-14T05:43:55;37.08;;;27.65;;
11016;SDS011;54687;50.800;6.772;2023-12-14T05:46:22;44.78;;;29.98;;
11016;SDS011;54687;50.800;6.772;2023-12-14T05:48:51;39.70;;;29.33;;
11016;SDS011;54687;50.800;6.772;2023-12-14T05:51:25;44.25;;;30.98;;
11016;SDS011;54687;50.800;6.772;2023-12-14T05:53:53;44.22;;;31.67;;
11016;SDS011;54687;50.800;6.772;2023-12-14T05:56:19;47.88;;;33.67;;
11016;SDS011;54687;50.800;6.772;2023-12-14T05:58:46;46.92;;;34.42;;
11016;SDS011;54687;50.800;6.772;2023-12-14T06:01:12;45.08;;;32.58;;
11016;SDS011;54687;50.800;6.772;2023-12-14T06:03:39;53.60;;;36.28;;
11016;SDS011;54687;50.800;6.772;2023-12-14T06:06:07;51.80;;;36.45;;
11016;SDS011;54687;50.800;6.772;2023-12-14T06:08:34;50.30;;;35.45;;
11016;SDS011;54687;50.800;6.772;2023-12-14T06:11:00;53.47;;;36.47;;
11016;SDS011;54687;50.800;6.772;2023-12-14T06:13:27;49.60;;;34.13;;
11016;SDS011;54687;50.800;6.772;2023-12-14T06:15:54;47.13;;;32.70;;
11016;SDS011;54687;50.800;6.772;2023-12-14T06:18:20;40.28;;;30.77;;
11016;SDS011;54687;50.800;6.772;2023-12-14T06:20:47;48.10;;;29.25;;
11016;SDS011;54687;50.800;6.772;2023-12-14T06:23:15;45.10;;;31.02;;
11016;SDS011;54687;50.800;6.772;2023-12-14T06:25:42;41.22;;;30.50;;
11016;SDS011;54687;50.800;6.772;2023-12-14T06:28:08;41.13;;;30.38;;
11016;SDS011;54687;50.800;6.772;2023-12-14T06:30:35;40.38;;;29.30;;
11016;SDS011;54687;50.800;6.772;2023-12-14T06:33:02;45.33;;;31.33;;
11016;SDS011;54687;50.800;6.772;2023-12-14T06:35:28;44.45;;;30.15;;
11016;SDS011;54687;50.800;6.772;2023-12-14T06:37:55;43.65;;;31.48;;
11016;SDS011;54687;50.800;6.772;2023-12-14T06:40:23;49.78;;;31.25;;
11016;SDS011;54687;50.800;6.772;2023-12-14T06:42:49;40.03;;;29.83;;
11016;SDS011;54687;50.800;6.772;2023-12-14T06:45:16;48.10;;;31.70;;
11016;SDS011;54687;50.800;6.772;2023-12-14T06:47:43;46.70;;;32.05;;
11016;SDS011;54687;50.800;6.772;2023-12-14T06:50:11;45.75;;;30.27;;
11016;SDS011;54687;50.800;6.772;2023-12-14T06:52:38;51.00;;;31.30;;
11016;SDS011;54687;50.800;6.772;2023-12-14T06:55:05;44.58;;;28.98;;
11016;SDS011;54687;50.800;6.772;2023-12-14T06:57:33;39.75;;;26.67;;
11016;SDS011;54687;50.800;6.772;2023-12-14T07:00:00;36.70;;;27.10;;
11016;SDS011;54687;50.800;6.772;2023-12-14T07:02:27;36.45;;;26.73;;
11016;SDS011;54687;50.800;6.772;2023-12-14T07:04:53;36.38;;;25.85;;
11016;SDS011;54687;50.800;6.772;2023-12-14T07:07:20;37.13;;;26.27;;
11016;SDS011;54687;50.800;6.772;2023-12-14T07:09:46;35.17;;;24.60;;
11016;SDS011;54687;50.800;6.772;2023-12-14T07:12:13;35.80;;;23.83;;
11016;SDS011;54687;50.800;6.772;2023-12-14T07:14:41;31.05;;;21.70;;
11016;SDS011;54687;50.800;6.772;2023-12-14T07:17:08;29.45;;;20.58;;
11016;SDS011;54687;50.800;6.772;2023-12-14T07:19:35;26.17;;;19.05;;
11016;SDS011;54687;50.800;6.772;2023-12-14T07:22:02;25.08;;;19.83;;
11016;SDS011;54687;50.800;6.772;2023-12-14T07:24:28;29.75;;;21.58;;
11016;SDS011;54687;50.800;6.772;2023-12-14T07:26:56;28.05;;;20.60;;
11016;SDS011;54687;50.800;6.772;2023-12-14T07:29:22;27.00;;;20.92;;
11016;SDS011;54687;50.800;6.772;2023-12-14T07:31:50;32.05;;;23.45;;
11016;SDS011;54687;50.800;6.772;2023-12-14T07:34:16;29.40;;;23.00;;
11016;SDS011;54687;50.800;6.772;2023-12-14T07:36:43;32.40;;;23.10;;
11016;SDS011;54687;50.800;6.772;2023-12-14T07:39:09;29.13;;;22.75;;
11016;SDS011;54687;50.800;6.772;2023-12-14T07:41:37;33.15;;;22.92;;
11016;SDS011;54687;50.800;6.772;2023-12-14T07:44:04;34.47;;;23.42;;
11016;SDS011;54687;50.800;6.772;2023-12-14T07:46:30;29.77;;;22.42;;
11016;SDS011;54687;50.800;6.772;2023-12-14T07:48:58;33.10;;;25.10;;
11016;SDS011;54687;50.800;6.772;2023-12-14T07:51:25;33.33;;;24.48;;
11016;SDS011;54687;50.800;6.772;2023-12-14T07:53:52;34.78;;;25.67;;
11016;SDS011;54687;50.800;6.772;2023-12-14T07:56:19;32.70;;;24.00;;
11016;SDS011;54687;50.800;6.772;2023-12-14T07:58:50;31.33;;;23.77;;
11016;SDS011;54687;50.800;6.772;2023-12-14T08:01:17;31.35;;;23.77;;
11016;SDS011;54687;50.800;6.772;2023-12-14T08:03:43;27.70;;;22.25;;
11016;SDS011;54687;50.800;6.772;2023-12-14T08:06:11;26.88;;;21.52;;
11016;SDS011;54687;50.800;6.772;2023-12-14T08:08:38;29.13;;;22.63;;
11016;SDS011;54687;50.800;6.772;2023-12-14T08:11:05;26.55;;;20.77;;
11016;SDS011;54687;50.800;6.772;2023-12-14T08:13:31;27.98;;;21.00;;
11016;SDS011;54687;50.800;6.772;2023-12-14T08:15:58;26.08;;;20.77;;
11016;SDS011;54687;50.800;6.772;2023-12-14T08:18:25;25.92;;;20.27;;
11016;SDS011;54687;50.800;6.772;2023-12-14T08:20:52;27.25;;;20.13;;
11016;SDS011;54687;50.800;6.772;2023-12-14T08:23:21;26.83;;;19.00;;
11016;SDS011;54687;50.800;6.772;2023-12-14T08:25:48;25.98;;;19.70;;
11016;SDS011;54687;50.800;6.772;2023-12-14T08:28:15;25.02;;;18.50;;
11016;SDS011;54687;50.800;6.772;2023-12-14T08:30:41;27.80;;;21.63;;
11016;SDS011;54687;50.800;6.772;2023-12-14T08:33:08;25.95;;;19.40;;
11016;SDS011;54687;50.800;6.772;2023-12-14T08:35:34;25.15;;;20.17;;
11016;SDS011;54687;50.800;6.772;2023-12-14T08:38:01;23.15;;;17.88;;
11016;SDS011;54687;50.800;6.772;2023-12-14T08:40:29;25.83;;;19.60;;
11016;SDS011;54687;50.800;6.772;2023-12-14T08:42:56;30.02;;;22.45;;
11016;SDS011;54687;50.800;6.772;2023-12-14T08:45:23;31.55;;;23.05;;
11016;SDS011;54687;50.800;6.772;2023-12-14T08:47:50;31.35;;;23.30;;
11016;SDS011;54687;50.800;6.772;2023-12-14T08:50:16;35.03;;;23.65;;
11016;SDS011;54687;50.800;6.772;2023-12-14T08:52:43;36.20;;;25.70;;
11016;SDS011;54687;50.800;6.772;2023-12-14T08:55:11;39.10;;;25.90;;
11016;SDS011;54687;50.800;6.772;2023-12-14T08:57:39;34.70;;;26.20;;
11016;SDS011;54687;50.800;6.772;2023-12-14T09:00:06;36.50;;;27.25;;
11016;SDS011;54687;50.800;6.772;2023-12-14T09:02:33;33.88;;;25.17;;
11016;SDS011;54687;50.800;6.772;2023-12-14T09:05:01;36.55;;;26.52;;
11016;SDS011;54687;50.800;6.772;2023-12-14T09:07:28;34.88;;;27.23;;
11016;SDS011;54687;50.800;6.772;2023-12-14T09:09:54;31.33;;;25.35;;
11016;SDS011;54687;50.800;6.772;2023-12-14T09:12:21;31.58;;;24.42;;
11016;SDS011;54687;50.800;6.772;2023-12-14T09:14:49;30.02;;;25.17;;
11016;SDS011;54687;50.800;6.772;2023-12-14T09:17:15;33.75;;;25.67;;
11016;SDS011;54687;50.800;6.772;2023-12-14T09:19:43;34.75;;;26.23;;
11016;SDS011;54687;50.800;6.772;2023-12-14T09:22:10;34.50;;;26.48;;
11016;SDS011;54687;50.800;6.772;2023-12-14T09:24:36;38.67;;;27.27;;
11016;SDS011;54687;50.800;6.772;2023-12-14T09:27:03;35.88;;;26.48;;
11016;SDS011;54687;50.800;6.772;2023-12-14T09:29:30;33.67;;;25.38;;
11016;SDS011;54687;50.800;6.772;2023-12-14T09:31:58;32.65;;;24.52;;
11016;SDS011;54687;50.800;6.772;2023-12-14T09:34:24;32.17;;;23.70;;
11016;SDS011;54687;50.800;6.772;2023-12-14T09:36:51;29.08;;;24.35;;
11016;SDS011;54687;50.800;6.772;2023-12-14T09:39:18;30.45;;;22.88;;
11016;SDS011;54687;50.800;6.772;2023-12-14T09:41:46;29.58;;;23.95;;
11016;SDS011;54687;50.800;6.772;2023-12-14T09:44:13;30.90;;;23.27;;
11016;SDS011;54687;50.800;6.772;2023-12-14T09:46:40;27.52;;;22.25;;
11016;SDS011;54687;50.800;6.772;2023-12-14T09:49:15;28.95;;;22.33;;
11016;SDS011;54687;50.800;6.772;2023-12-14T09:51:42;28.92;;;23.05;;
11016;SDS011;54687;50.800;6.772;2023-12-14T09:54:09;28.95;;;23.38;;
11016;SDS011;54687;50.800;6.772;2023-12-14T09:56:35;27.73;;;22.60;;
11016;SDS011;54687;50.800;6.772;2023-12-14T09:59:12;30.15;;;23.92;;
11016;SDS011;54687;50.800;6.772;2023-12-14T10:01:38;30.25;;;24.13;;
11016;SDS011;54687;50.800;6.772;2023-12-14T10:04:08;30.67;;;23.50;;
11016;SDS011;54687;50.800;6.772;2023-12-14T10:06:38;26.98;;;23.27;;
11016;SDS011;54687;50.800;6.772;2023-12-14T10:09:05;28.48;;;23.85;;
11016;SDS011;54687;50.800;6.772;2023-12-14T10:11:34;27.52;;;24.05;;
11016;SDS011;54687;50.800;6.772;2023-12-14T10:14:01;29.83;;;24.45;;
11016;SDS011;54687;50.800;6.772;2023-12-14T10:16:29;34.40;;;26.50;;
11016;SDS011;54687;50.800;6.772;2023-12-14T10:18:57;30.80;;;26.15;;
11016;SDS011;54687;50.800;6.772;2023-12-14T10:21:25;27.48;;;23.88;;
11016;SDS011;54687;50.800;6.772;2023-12-14T10:23:53;28.20;;;24.17;;
11016;SDS011;54687;50.800;6.772;2023-12-14T10:26:21;29.15;;;24.50;;
11016;SDS011;54687;50.800;6.772;2023-12-14T10:28:48;25.95;;;23.13;;
11016;SDS011;54687;50.800;6.772;2023-12-14T10:31:16;27.15;;;23.88;;
11016;SDS011;54687;50.800;6.772;2023-12-14T10:33:43;27.63;;;24.00;;
11016;SDS011;54687;50.800;6.772;2023-12-14T10:36:11;26.33;;;22.33;;
11016;SDS011;54687;50.800;6.772;2023-12-14T10:38:39;26.77;;;21.75;;
11016;SDS011;54687;50.800;6.772;2023-12-14T10:41:10;24.80;;;21.90;;
11016;SDS011;54687;50.800;6.772;2023-12-14T10:43:39;24.27;;;21.75;;
11016;SDS011;54687;50.800;6.772;2023-12-14T10:46:07;26.27;;;23.20;;
11016;SDS011;54687;50.800;6.772;2023-12-14T10:48:36;24.30;;;21.70;;
11016;SDS011;54687;50.800;6.772;2023-12-14T10:51:03;26.13;;;22.60;;
11016;SDS011;54687;50.800;6.772;2023-12-14T10:53:32;23.92;;;21.45;;
11016;SDS011;54687;50.800;6.772;2023-12-14T10:55:59;24.27;;;21.75;;
11016;SDS011;54687;50.800;6.772;2023-12-14T10:58:45;23.88;;;21.30;;
11016;SDS011;54687;50.800;6.772;2023-12-14T11:01:13;25.33;;;21.73;;
11016;SDS011;54687;50.800;6.772;2023-12-14T11:03:41;23.58;;;21.08;;
11016;SDS011;54687;50.800;6.772;2023-12-14T11:06:19;25.08;;;20.83;;
11016;SDS011;54687;50.800;6.772;2023-12-14T11:08:48;20.98;;;18.95;;
11016;SDS011;54687;50.800;6.772;2023-12-14T11:11:14;21.63;;;19.33;;
11016;SDS011;54687;50.800;6.772;2023-12-14T11:13:47;21.25;;;18.70;;
11016;SDS011;54687;50.800;6.772;2023-12-14T11:16:19;20.17;;;18.08;;
11016;SDS011;54687;50.800;6.772;2023-12-14T11:18:46;20.73;;;18.63;;
11016;SDS011;54687;50.800;6.772;2023-12-14T11:21:17;21.35;;;18.90;;
11016;SDS011;54687;50.800;6.772;2023-12-14T11:23:47;19.83;;;17.92;;
11016;SDS011;54687;50.800;6.772;2023-12-14T11:26:20;19.75;;;17.75;;
11016;SDS011;54687;50.800;6.772;2023-12-14T11:28:48;19.80;;;17.88;;
11016;SDS011;54687;50.800;6.772;2023-12-14T11:31:16;20.50;;;18.33;;
11016;SDS011;54687;50.800;6.772;2023-12-14T11:33:43;21.27;;;19.08;;
11016;SDS011;54687;50.800;6.772;2023-12-14T11:36:13;20.63;;;18.63;;
11016;SDS011;54687;50.800;6.772;2023-12-14T11:38:41;22.23;;;19.98;;
11016;SDS011;54687;50.800;6.772;2023-12-14T11:41:08;21.75;;;19.60;;
11016;SDS011;54687;50.800;6.772;2023-12-14T11:43:38;21.48;;;19.30;;
11016;SDS011;54687;50.800;6.772;2023-12-14T11:46:07;23.60;;;21.17;;
11016;SDS011;54687;50.800;6.772;2023-12-14T11:48:34;21.98;;;19.70;;
11016;SDS011;54687;50.800;6.772;2023-12-14T11:51:01;22.42;;;20.15;;
11016;SDS011;54687;50.800;6.772;2023-12-14T11:53:28;20.08;;;18.17;;
11016;SDS011;54687;50.800;6.772;2023-12-14T11:55:55;22.85;;;20.42;;
11016;SDS011;54687;50.800;6.772;2023-12-14T11:58:22;21.70;;;19.52;;
11016;SDS011;54687;50.800;6.772;2023-12-14T12:00:51;23.23;;;20.83;;
11016;SDS011;54687;50.800;6.772;2023-12-14T12:03:19;23.90;;;21.63;;
11016;SDS011;54687;50.800;6.772;2023-12-14T12:05:47;22.10;;;20.00;;
11016;SDS011;54687;50.800;6.772;2023-12-14T12:08:15;21.42;;;19.42;;
11016;SDS011;54687;50.800;6.772;2023-12-14T12:10:45;21.38;;;19.17;;
11016;SDS011;54687;50.800;6.772;2023-12-14T12:13:13;20.73;;;18.73;;
11016;SDS011;54687;50.800;6.772;2023-12-14T12:15:43;21.48;;;19.48;;
11016;SDS011;54687;50.800;6.772;2023-12-14T12:18:11;21.85;;;19.67;;
11016;SDS011;54687;50.800;6.772;2023-12-14T12:20:40;22.15;;;20.02;;
11016;SDS011;54687;50.800;6.772;2023-12-14T12:23:07;23.95;;;21.55;;
11016;SDS011;54687;50.800;6.772;2023-12-14T12:25:33;22.13;;;20.02;;
11016;SDS011;54687;50.800;6.772;2023-12-14T12:28:01;21.63;;;19.25;;
11016;SDS011;54687;50.800;6.772;2023-12-14T12:30:29;21.52;;;19.10;;
11016;SDS011;54687;50.800;6.772;2023-12-14T12:32:55;22.02;;;19.88;;
11016;SDS011;54687;50.800;6.772;2023-12-14T12:35:23;21.08;;;18.95;;
11016;SDS011;54687;50.800;6.772;2023-12-14T12:37:52;21.90;;;19.70;;
11016;SDS011;54687;50.800;6.772;2023-12-14T12:40:19;22.38;;;20.17;;
11016;SDS011;54687;50.800;6.772;2023-12-14T12:42:46;21.65;;;19.65;;
11016;SDS011;54687;50.800;6.772;2023-12-14T12:45:14;24.77;;;22.40;;
11016;SDS011;54687;50.800;6.772;2023-12-14T12:47:42;21.92;;;19.73;;
11016;SDS011;54687;50.800;6.772;2023-12-14T12:50:08;23.65;;;21.10;;
11016;SDS011;54687;50.800;6.772;2023-12-14T12:52:35;24.65;;;22.10;;
11016;SDS011;54687;50.800;6.772;2023-12-14T12:55:05;23.92;;;21.52;;
11016;SDS011;54687;50.800;6.772;2023-12-14T12:57:32;21.95;;;19.85;;
11016;SDS011;54687;50.800;6.772;2023-12-14T12:59:59;21.75;;;19.27;;
11016;SDS011;54687;50.800;6.772;2023-12-14T13:02:25;22.77;;;20.52;;
11016;SDS011;54687;50.800;6.772;2023-12-14T13:04:52;22.50;;;20.38;;
11016;SDS011;54687;50.800;6.772;2023-12-14T13:07:18;22.48;;;20.38;;
11016;SDS011;54687;50.800;6.772;2023-12-14T13:09:45;22.17;;;19.98;;
11016;SDS011;54687;50.800;6.772;2023-12-14T13:12:13;25.02;;;22.63;;
11016;SDS011;54687;50.800;6.772;2023-12-14T13:14:39;23.10;;;20.90;;
11016;SDS011;54687;50.800;6.772;2023-12-14T13:17:06;22.50;;;20.23;;
11016;SDS011;54687;50.800;6.772;2023-12-14T13:19:33;21.83;;;19.65;;
11016;SDS011;54687;50.800;6.772;2023-12-14T13:21:59;23.35;;;20.85;;
11016;SDS011;54687;50.800;6.772;2023-12-14T13:24:27;22.80;;;20.60;;
11016;SDS011;54687;50.800;6.772;2023-12-14T13:26:54;25.65;;;20.20;;
11016;SDS011;54687;50.800;6.772;2023-12-14T13:29:22;21.88;;;19.85;;
11016;SDS011;54687;50.800;6.772;2023-12-14T13:31:49;21.77;;;19.67;;
11016;SDS011;54687;50.800;6.772;2023-12-14T13:34:16;21.75;;;19.65;;
11016;SDS011;54687;50.800;6.772;2023-12-14T13:36:42;20.48;;;18.35;;
11016;SDS011;54687;50.800;6.772;2023-12-14T13:39:09;20.45;;;18.45;;
11016;SDS011;54687;50.800;6.772;2023-12-14T13:41:36;18.40;;;16.58;;
11016;SDS011;54687;50.800;6.772;2023-12-14T13:44:03;18.52;;;16.60;;
11016;SDS011;54687;50.800;6.772;2023-12-14T13:46:31;17.00;;;15.23;;
11016;SDS011;54687;50.800;6.772;2023-12-14T13:48:57;18.88;;;17.08;;
11016;SDS011;54687;50.800;6.772;2023-12-14T13:51:25;18.20;;;16.40;;
11016;SDS011;54687;50.800;6.772;2023-12-14T13:53:52;18.27;;;16.45;;
11016;SDS011;54687;50.800;6.772;2023-12-14T13:56:18;16.92;;;15.32;;
11016;SDS011;54687;50.800;6.772;2023-12-14T13:58:50;17.92;;;16.23;;
11016;SDS011;54687;50.800;6.772;2023-12-14T14:01:17;17.95;;;16.20;;
11016;SDS011;54687;50.800;6.772;2023-12-14T14:03:45;16.70;;;15.00;;
11016;SDS011;54687;50.800;6.772;2023-12-14T14:06:12;16.15;;;14.52;;
11016;SDS011;54687;50.800;6.772;2023-12-14T14:08:39;15.43;;;13.82;;
11016;SDS011;54687;50.800;6.772;2023-12-14T14:11:06;16.27;;;14.57;;
11016;SDS011;54687;50.800;6.772;2023-12-14T14:13:32;16.70;;;14.73;;
11016;SDS011;54687;50.800;6.772;2023-12-14T14:15:59;15.45;;;13.95;;
11016;SDS011;54687;50.800;6.772;2023-12-14T14:18:26;15.38;;;13.82;;
11016;SDS011;54687;50.800;6.772;2023-12-14T14:20:54;16.27;;;14.77;;